Time;durP1;ratioP1;P1;durP2;ratioP2;P2;SDS_P1;SDS_P2;PMS_P1;PMS_P2;Temp;Humidity;BMP_temperature;BMP_pressure;BME280_temperature;BME280_humidity;BME280_pressure;Samples;Min_cycle;Max_cycle;Signal;HPM_P1;HPM_P2
2022/07/01 00:03:35;;;;;;;;;;;;;;;14.83;81.00;99364.06;8321464;28;20329;-77
2022/07/01 00:07:36;;;;;;;;;;;;;;;14.82;81.04;99360.59;8293581;28;19929;-77
2022/07/01 00:11:38;;;;;;;;;;;;;;;14.88;80.91;99353.47;8317569;28;20379;-77
2022/07/01 00:15:39;;;;;;;;;;;;;;;14.85;80.82;99354.41;8319871;28;20384;-76
2022/07/01 00:19:40;;;;;;;;;;;;;;;14.87;81.33;99372.69;8283570;28;20360;-76
2022/07/01 00:23:42;;;;;;;;;;;;;;;14.84;80.97;99364.91;8280343;28;20079;-76
2022/07/01 00:27:44;;;;;;;;;;;;;;;14.81;81.24;99366.69;8319975;28;19955;-77
2022/07/01 00:31:45;;;;;;;;;;;;;;;14.84;81.00;99375.38;8301721;28;19929;-77
2022/07/01 00:35:46;;;;;;;;;;;;;;;14.87;81.21;99359.59;8320353;28;19929;-77
2022/07/01 00:39:48;;;;;;;;;;;;;;;14.86;80.92;99363.13;8301660;28;19929;-76
2022/07/01 00:43:49;;;;;;;;;;;;;;;14.81;81.36;99368.47;8303436;28;19956;-77
2022/07/01 00:47:56;;;;;;;;;;;;;;;14.82;81.55;99384.09;8301549;28;19987;-77
2022/07/01 00:51:57;;;;;;;;;;;;;;;14.80;81.63;99377.19;8319382;28;19929;-77
2022/07/01 00:55:59;;;;;;;;;;;;;;;14.81;81.63;99399.81;8302612;28;19929;-77
2022/07/01 01:00:03;;;;;;;;;;;;;;;14.78;81.73;99399.91;8303052;28;19941;-76
2022/07/01 01:04:06;;;;;;;;;;;;;;;14.79;81.78;99405.09;8311693;28;19929;-77
2022/07/01 01:08:08;;;;;;;;;;;;;;;14.78;81.79;99392.91;8321958;28;20051;-77
2022/07/01 01:12:11;;;;;;;;;;;;;;;14.77;82.05;99406.03;8284381;28;19929;-77
2022/07/01 01:16:20;;;;;;;;;;;;;;;14.78;82.28;99419.06;8290778;28;19944;-77
2022/07/01 01:20:21;;;;;;;;;;;;;;;14.77;82.37;99409.50;8317982;28;20012;-76
2022/07/01 01:24:23;;;;;;;;;;;;;;;14.80;81.85;99430.34;8316227;28;19933;-77
2022/07/01 01:28:24;;;;;;;;;;;;;;;14.74;82.11;99446.16;8318804;28;20307;-77
2022/07/01 01:32:26;;;;;;;;;;;;;;;14.73;82.06;99413.06;8318779;28;19972;-77
2022/07/01 01:36:28;;;;;;;;;;;;;;;14.80;82.24;99421.63;8304822;28;19979;-77
2022/07/01 01:40:29;;;;;;;;;;;;;;;14.78;81.94;99424.28;8317631;28;19936;-77
2022/07/01 01:44:31;;;;;;;;;;;;;;;14.79;81.87;99418.16;8318028;28;19929;-77
2022/07/01 01:48:32;;;;;;;;;;;;;;;14.82;81.79;99414.63;8301889;28;19933;-77
2022/07/01 01:52:34;;;;;;;;;;;;;;;14.79;81.63;99419.91;8291583;28;20396;-77
2022/07/01 01:56:35;;;;;;;;;;;;;;;14.72;81.69;99426.16;8304535;28;20011;-76
2022/07/01 02:00:37;;;;;;;;;;;;;;;14.68;82.57;99414.03;8319491;28;19971;-77
2022/07/01 02:04:38;;;;;;;;;;;;;;;14.78;82.22;99399.91;8309128;28;19939;-77
2022/07/01 02:08:41;;;;;;;;;;;;;;;14.83;82.12;99384.97;8290944;28;19929;-77
2022/07/01 02:12:42;;;;;;;;;;;;;;;14.81;82.07;99389.38;8297076;28;19964;-77
2022/07/01 02:16:43;;;;;;;;;;;;;;;14.79;82.27;99376.34;8314448;28;19935;-77
2022/07/01 02:20:45;;;;;;;;;;;;;;;14.80;81.69;99406.81;8311177;28;19979;-76
2022/07/01 02:24:46;;;;;;;;;;;;;;;14.80;81.42;99417.25;8330296;28;19940;-76
2022/07/01 02:28:47;;;;;;;;;;;;;;;14.79;81.41;99431.22;8310222;28;20426;-76
2022/07/01 02:32:49;;;;;;;;;;;;;;;14.80;81.19;99434.72;8308284;28;19940;-76
2022/07/01 02:36:54;;;;;;;;;;;;;;;14.78;80.89;99434.75;8357119;28;19935;-76
2022/07/01 02:40:56;;;;;;;;;;;;;;;14.76;80.19;99433.06;8359416;28;19929;-76
2022/07/01 02:44:57;;;;;;;;;;;;;;;14.68;79.28;99429.72;8355975;28;20315;-77
2022/07/01 02:48:59;;;;;;;;;;;;;;;14.70;79.56;99425.31;8352568;28;19928;-76
2022/07/01 02:53:00;;;;;;;;;;;;;;;14.70;79.08;99428.78;8339013;28;19929;-77
2022/07/01 02:57:01;;;;;;;;;;;;;;;14.58;78.64;99428.19;8356037;28;19929;-76
2022/07/01 03:01:03;;;;;;;;;;;;;;;14.56;78.21;99437.81;8338995;28;20547;-77
2022/07/01 03:05:05;;;;;;;;;;;;;;;14.58;78.28;99436.91;8338493;28;19940;-76
2022/07/01 03:09:06;;;;;;;;;;;;;;;14.59;78.40;99441.22;8354791;28;20230;-77
2022/07/01 03:13:08;;;;;;;;;;;;;;;14.58;78.13;99429.06;8356572;28;20023;-77
2022/07/01 03:17:09;;;;;;;;;;;;;;;14.51;77.94;99430.06;8324113;28;19935;-76
2022/07/01 03:21:10;;;;;;;;;;;;;;;14.47;78.15;99434.47;8353844;28;19929;-77
2022/07/01 03:25:12;;;;;;;;;;;;;;;14.49;78.35;99430.09;8354800;28;20015;-77
2022/07/01 03:29:13;;;;;;;;;;;;;;;14.46;78.75;99430.16;8354691;28;20052;-76
2022/07/01 03:33:15;;;;;;;;;;;;;;;14.41;78.46;99415.44;8336022;28;19928;-77
2022/07/01 03:37:17;;;;;;;;;;;;;;;14.38;78.73;99405.06;8337643;28;19940;-78
2022/07/01 03:41:19;;;;;;;;;;;;;;;14.37;78.92;99416.41;8325641;28;19944;-77
2022/07/01 03:45:20;;;;;;;;;;;;;;;14.32;79.01;99431.28;8338799;28;19936;-78
2022/07/01 03:49:22;;;;;;;;;;;;;;;14.28;79.53;99447.91;8358824;28;19964;-78
2022/07/01 03:57:44;;;;;;;;;;;;;;;14.31;81.44;99427.78;8363448;28;20249;-78
2022/07/01 04:01:45;;;;;;;;;;;;;;;14.23;80.14;99450.59;8363718;28;20012;-78
2022/07/01 04:05:47;;;;;;;;;;;;;;;14.15;80.72;99440.28;8329181;28;19972;-78
2022/07/01 04:09:48;;;;;;;;;;;;;;;14.18;81.15;99439.34;8341585;28;19928;-78
2022/07/01 04:13:50;;;;;;;;;;;;;;;14.17;80.85;99461.13;8338842;28;19971;-77
2022/07/01 04:17:51;;;;;;;;;;;;;;;14.16;80.85;99442.00;8348324;28;19929;-78
2022/07/01 04:26:13;;;;;;;;;;;;;;;14.35;81.01;99465.16;8364761;28;19940;-78
2022/07/01 04:30:34;;;;;;;;;;;;;;;14.32;80.62;99483.50;8356749;28;20012;-78
2022/07/01 04:34:36;;;;;;;;;;;;;;;14.31;80.30;99466.97;8343322;28;19929;-78
2022/07/01 04:38:37;;;;;;;;;;;;;;;14.37;81.04;99479.94;8356283;28;19939;-78
2022/07/01 04:42:39;;;;;;;;;;;;;;;14.36;80.60;99479.94;8344429;28;19929;-78
2022/07/01 04:46:40;;;;;;;;;;;;;;;14.35;80.54;99471.25;8345571;28;19929;-78
2022/07/01 04:50:42;;;;;;;;;;;;;;;14.37;80.34;99477.34;8358949;28;19925;-78
2022/07/01 04:54:43;;;;;;;;;;;;;;;14.42;79.47;99467.66;8359804;28;19952;-78
2022/07/01 04:58:44;;;;;;;;;;;;;;;14.45;79.35;99487.66;8349387;28;19936;-78
2022/07/01 05:02:46;;;;;;;;;;;;;;;14.36;79.65;99504.34;8344470;28;19992;-78
2022/07/01 05:06:48;;;;;;;;;;;;;;;14.44;80.05;99494.63;8340225;28;19928;-78
2022/07/01 05:10:49;;;;;;;;;;;;;;;14.56;79.58;99493.56;8353217;28;19944;-77
2022/07/01 05:14:50;;;;;;;;;;;;;;;14.72;79.38;99517.63;8361549;28;19967;-78
2022/07/01 05:23:12;;;;;;;;;;;;;;;14.90;79.14;99519.91;8334589;28;19967;-77
2022/07/01 05:27:13;;;;;;;;;;;;;;;14.91;78.91;99526.00;8360897;28;20036;-77
2022/07/01 05:31:14;;;;;;;;;;;;;;;14.91;78.75;99534.69;8341658;28;19976;-77
2022/07/01 05:35:16;;;;;;;;;;;;;;;14.88;78.58;99539.09;8364853;28;19988;-77
2022/07/01 05:39:18;;;;;;;;;;;;;;;14.83;79.04;99533.97;8347034;28;19952;-77
2022/07/01 05:43:19;;;;;;;;;;;;;;;14.79;78.71;99519.25;8344726;28;19964;-77
2022/07/01 05:47:21;;;;;;;;;;;;;;;14.70;79.39;99515.03;8367830;28;20244;-77
2022/07/01 05:51:23;;;;;;;;;;;;;;;14.68;79.23;99521.19;8340050;28;20024;-77
2022/07/01 05:55:24;;;;;;;;;;;;;;;14.74;79.07;99519.34;8364440;28;19928;-77
2022/07/01 05:59:26;;;;;;;;;;;;;;;14.66;78.89;99517.75;8350530;28;19956;-77
2022/07/01 06:03:27;;;;;;;;;;;;;;;14.66;79.61;99520.38;8361056;28;19928;-77
2022/07/01 06:07:29;;;;;;;;;;;;;;;14.71;79.95;99518.53;8337680;28;19940;-77
2022/07/01 06:11:31;;;;;;;;;;;;;;;14.91;79.64;99518.16;8345224;28;19925;-77
2022/07/01 06:15:33;;;;;;;;;;;;;;;15.03;79.15;99515.28;8363127;28;19951;-77
2022/07/01 06:19:34;;;;;;;;;;;;;;;15.26;78.60;99515.69;8340339;28;19937;-77
2022/07/01 06:23:37;;;;;;;;;;;;;;;15.53;77.06;99508.09;8358730;28;20020;-77
2022/07/01 06:27:39;;;;;;;;;;;;;;;16.00;76.13;99520.13;8342605;28;20530;-77
2022/07/01 06:31:41;;;;;;;;;;;;;;;16.50;73.70;99531.06;8339686;28;20446;-77
2022/07/01 06:35:42;;;;;;;;;;;;;;;16.32;72.43;99525.38;8298634;28;19941;-77
2022/07/01 06:39:44;;;;;;;;;;;;;;;16.20;72.41;99523.09;8304070;28;19989;-77
2022/07/01 06:43:45;;;;;;;;;;;;;;;16.56;72.50;99525.69;8297854;28;19929;-78
2022/07/01 06:47:46;;;;;;;;;;;;;;;16.65;71.35;99522.78;8295457;28;19971;-77
2022/07/01 06:51:48;;;;;;;;;;;;;;;16.82;69.55;99536.34;8303066;28;19928;-77
2022/07/01 06:55:49;;;;;;;;;;;;;;;17.10;69.47;99535.59;8299703;28;19979;-77
2022/07/01 06:59:52;;;;;;;;;;;;;;;17.55;67.75;99532.50;8296693;28;19936;-78
2022/07/01 07:03:54;;;;;;;;;;;;;;;17.42;67.10;99543.38;8311997;28;20340;-77
2022/07/01 07:07:56;;;;;;;;;;;;;;;17.48;65.61;99540.56;8290650;28;19929;-77
2022/07/01 07:12:02;;;;;;;;;;;;;;;17.39;66.11;99539.97;8311122;28;19940;-77
2022/07/01 07:16:04;;;;;;;;;;;;;;;17.33;66.34;99535.75;8300769;28;20021;-77
2022/07/01 07:20:06;;;;;;;;;;;;;;;17.15;65.99;99539.78;8307479;28;19971;-76
2022/07/01 07:24:07;;;;;;;;;;;;;;;17.03;66.08;99539.25;8287794;28;20523;-77
2022/07/01 07:28:09;;;;;;;;;;;;;;;16.73;67.18;99547.09;8280485;28;19939;-77
2022/07/01 07:32:10;;;;;;;;;;;;;;;16.43;68.46;99547.84;8281437;28;19952;-77
2022/07/01 07:36:12;;;;;;;;;;;;;;;16.39;69.63;99551.47;8341849;28;19972;-77
2022/07/01 07:40:17;;;;;;;;;;;;;;;16.41;69.68;99550.53;8348461;28;20426;-77
2022/07/01 07:44:19;;;;;;;;;;;;;;;16.55;69.97;99545.78;8348259;28;19933;-77
2022/07/01 07:48:20;;;;;;;;;;;;;;;16.78;69.21;99546.97;8328469;28;19956;-77
2022/07/01 07:52:22;;;;;;;;;;;;;;;17.67;66.16;99538.22;8347544;28;19941;-77
2022/07/01 07:56:23;;;;;;;;;;;;;;;18.66;63.01;99540.25;8332050;28;19928;-77
2022/07/01 08:00:25;;;;;;;;;;;;;;;19.57;60.77;99538.72;8349604;28;19940;-77
2022/07/01 08:04:26;;;;;;;;;;;;;;;19.73;57.10;99549.47;8353947;28;19940;-78
2022/07/01 08:08:27;;;;;;;;;;;;;;;19.52;56.23;99550.28;8335565;28;20031;-76
2022/07/01 08:12:29;;;;;;;;;;;;;;;19.52;57.59;99552.91;8331884;28;19935;-78
2022/07/01 08:16:30;;;;;;;;;;;;;;;19.41;57.27;99557.75;8355524;28;20401;-77
2022/07/01 08:20:32;;;;;;;;;;;;;;;19.22;57.97;99560.22;8327857;28;19928;-75
2022/07/01 08:24:33;;;;;;;;;;;;;;;18.98;58.21;99562.81;8347124;28;19947;-75
2022/07/01 08:28:35;;;;;;;;;;;;;;;19.58;55.83;99569.41;8347047;28;20011;-75
2022/07/01 08:32:37;;;;;;;;;;;;;;;20.64;53.62;99560.72;8329820;28;19933;-75
2022/07/01 08:36:38;;;;;;;;;;;;;;;21.50;52.26;99562.22;8331126;28;20363;-75
2022/07/01 08:40:40;;;;;;;;;;;;;;;21.54;49.47;99561.13;8329051;28;19933;-75
2022/07/01 08:44:41;;;;;;;;;;;;;;;21.04;51.91;99559.84;8311724;28;20353;-77
2022/07/01 08:48:43;;;;;;;;;;;;;;;20.75;51.75;99570.81;8316668;28;19929;-77
2022/07/01 08:52:45;;;;;;;;;;;;;;;20.82;52.16;99561.69;8315777;28;20375;-75
2022/07/01 08:56:46;;;;;;;;;;;;;;;20.96;50.69;99563.75;8348059;28;19943;-75
2022/07/01 09:00:48;;;;;;;;;;;;;;;20.65;50.28;99575.66;8335732;28;20616;-75
2022/07/01 09:05:03;;;;;;;;;;;;;;;20.19;51.93;99571.38;8353980;28;19974;-74
2022/07/01 09:09:12;;;;;;;;;;;;;;;19.89;53.51;99584.84;8333854;28;19940;-75
2022/07/01 09:13:14;;;;;;;;;;;;;;;19.45;54.65;99585.69;8338584;28;19928;-75
2022/07/01 09:17:18;;;;;;;;;;;;;;;19.26;55.86;99580.25;8333078;28;20007;-75
2022/07/01 09:21:19;;;;;;;;;;;;;;;19.08;55.18;99584.41;8336534;28;19967;-75
2022/07/01 09:25:25;;;;;;;;;;;;;;;18.97;55.87;99591.81;8335130;28;19968;-75
2022/07/01 09:29:28;;;;;;;;;;;;;;;19.69;55.77;99592.69;8354531;28;19977;-75
2022/07/01 09:33:30;;;;;;;;;;;;;;;20.49;53.40;99583.34;8353643;28;20372;-75
2022/07/01 09:37:34;;;;;;;;;;;;;;;21.20;51.04;99577.66;8336973;28;19964;-74
2022/07/01 09:41:36;;;;;;;;;;;;;;;21.41;47.56;99579.34;8357483;28;19929;-76
2022/07/01 09:45:38;;;;;;;;;;;;;;;21.82;46.82;99569.50;8338415;28;20310;-75
2022/07/01 09:49:39;;;;;;;;;;;;;;;22.17;44.32;99570.47;8341018;28;19929;-76
2022/07/01 09:53:42;;;;;;;;;;;;;;;22.00;45.66;99571.25;8354190;28;19929;-76
2022/07/01 09:57:43;;;;;;;;;;;;;;;21.99;46.88;99580.13;8357130;28;20487;-76
2022/07/01 10:01:45;;;;;;;;;;;;;;;21.77;47.47;99578.56;8322801;28;20062;-75
2022/07/01 10:05:57;;;;;;;;;;;;;;;21.67;47.44;99580.78;8361759;28;19995;-75
2022/07/01 10:10:05;;;;;;;;;;;;;;;21.75;47.88;99583.94;8347570;28;20020;-76
2022/07/01 10:14:09;;;;;;;;;;;;;;;22.29;46.50;99588.41;8340463;28;19928;-75
2022/07/01 10:18:24;;;;;;;;;;;;;;;22.71;45.03;99573.94;8343686;28;20673;-76
2022/07/01 10:22:27;;;;;;;;;;;;;;;22.53;44.31;99581.00;8344329;28;20017;-77
2022/07/01 10:26:29;;;;;;;;;;;;;;;21.96;44.85;99587.34;8356424;28;20024;-78
2022/07/01 10:30:32;;;;;;;;;;;;;;;21.81;45.21;99581.00;8354026;28;19929;-78
2022/07/01 10:34:35;;;;;;;;;;;;;;;22.40;45.98;99581.69;8342536;28;19928;-78
2022/07/01 10:38:58;;;;;;;;;;;;;;;22.83;43.04;99583.06;8357437;28;19933;-77
2022/07/01 10:42:59;;;;;;;;;;;;;;;23.40;42.37;99573.00;8350395;28;20316;-78
2022/07/01 10:47:18;;;;;;;;;;;;;;;23.71;41.18;99559.81;8333166;28;19974;-77
2022/07/01 10:51:57;;;;;;;;;;;;;;;24.22;40.66;99575.50;8362108;28;20087;-78
2022/07/01 10:56:04;;;;;;;;;;;;;;;23.87;39.22;99569.53;8270353;28;19937;-78
2022/07/01 11:00:05;;;;;;;;;;;;;;;23.28;40.46;99585.09;8261475;28;20112;-79
2022/07/01 11:04:11;;;;;;;;;;;;;;;23.54;42.28;99581.06;8258835;28;19930;-78
2022/07/01 11:08:12;;;;;;;;;;;;;;;23.31;41.44;99582.28;8269965;28;21875;-78
2022/07/01 11:12:24;;;;;;;;;;;;;;;22.92;42.50;99585.22;8269387;28;19936;-77
2022/07/01 11:16:27;;;;;;;;;;;;;;;22.80;41.73;99583.19;8270755;28;19949;-78
2022/07/01 11:20:30;;;;;;;;;;;;;;;22.22;42.70;99596.69;8253722;28;20602;-78
2022/07/01 11:24:32;;;;;;;;;;;;;;;21.87;44.43;99606.28;8279175;28;20490;-78
2022/07/01 11:28:40;;;;;;;;;;;;;;;21.96;44.98;99592.63;8336472;28;19933;-77
2022/07/01 11:32:50;;;;;;;;;;;;;;;22.00;43.91;99604.78;8356511;28;19950;-77
2022/07/01 11:41:22;;;;;;;;;;;;;;;22.56;44.34;99598.53;8351660;28;19986;-77
2022/07/01 11:45:24;;;;;;;;;;;;;;;23.05;42.34;99593.41;8336099;28;19933;-77
2022/07/01 11:49:25;;;;;;;;;;;;;;;23.27;39.90;99601.06;8353730;28;19936;-78
2022/07/01 11:53:28;;;;;;;;;;;;;;;23.36;39.85;99590.84;8337252;28;20032;-78
2022/07/01 11:57:29;;;;;;;;;;;;;;;23.60;38.90;99578.09;8334395;28;19928;-79
2022/07/01 12:01:32;;;;;;;;;;;;;;;23.51;39.40;99575.88;8325616;28;20019;-77
2022/07/01 12:05:34;;;;;;;;;;;;;;;23.04;40.71;99584.59;8340291;28;19956;-78
2022/07/01 12:09:38;;;;;;;;;;;;;;;22.84;40.94;99596.22;8324850;28;19929;-77
2022/07/01 12:13:41;;;;;;;;;;;;;;;23.24;40.83;99575.59;8322532;28;19932;-77
2022/07/01 12:17:42;;;;;;;;;;;;;;;23.68;39.29;99575.84;8341495;28;19960;-77
2022/07/01 12:21:51;;;;;;;;;;;;;;;23.74;37.63;99574.69;8323491;28;20253;-77
2022/07/01 12:25:54;;;;;;;;;;;;;;;24.03;38.00;99571.22;8331940;28;20291;-78
2022/07/01 12:29:56;;;;;;;;;;;;;;;24.29;36.27;99564.47;8341831;28;19928;-77
2022/07/01 12:33:57;;;;;;;;;;;;;;;24.25;33.22;99572.69;8324885;28;19937;-77
2022/07/01 12:38:01;;;;;;;;;;;;;;;24.43;33.94;99561.03;8348928;28;20019;-77
2022/07/01 12:42:03;;;;;;;;;;;;;;;24.09;33.84;99570.91;8333781;28;19935;-77
2022/07/01 12:46:04;;;;;;;;;;;;;;;23.64;33.41;99554.91;8337291;28;20276;-77
2022/07/01 12:50:08;;;;;;;;;;;;;;;23.27;35.78;99563.97;8355399;28;19929;-77
2022/07/01 12:54:27;;;;;;;;;;;;;;;22.96;34.62;99565.59;8354958;28;19936;-76
2022/07/01 12:58:29;;;;;;;;;;;;;;;22.91;36.52;99572.94;8331855;28;20608;-77
2022/07/01 13:02:30;;;;;;;;;;;;;;;23.34;35.97;99568.00;8321106;28;20319;-77
2022/07/01 13:06:32;;;;;;;;;;;;;;;23.98;36.07;99565.34;8351589;28;20023;-78
2022/07/01 13:10:33;;;;;;;;;;;;;;;24.31;34.88;99564.41;8335546;28;19928;-76
2022/07/01 13:14:34;;;;;;;;;;;;;;;24.62;34.23;99574.94;8350522;28;19939;-75
2022/07/01 13:18:37;;;;;;;;;;;;;;;24.46;31.96;99567.97;8333763;28;19929;-77
2022/07/01 13:22:39;;;;;;;;;;;;;;;24.46;32.48;99570.63;8349924;28;19935;-77
2022/07/01 13:26:41;;;;;;;;;;;;;;;24.37;30.92;99564.88;8337387;28;20032;-77
2022/07/01 13:30:42;;;;;;;;;;;;;;;24.57;32.73;99568.16;8328470;28;20036;-77
2022/07/01 13:34:44;;;;;;;;;;;;;;;24.70;31.93;99575.31;8349316;28;19928;-77
2022/07/01 13:38:48;;;;;;;;;;;;;;;24.48;30.58;99572.22;8347955;28;19929;-77
2022/07/01 13:42:50;;;;;;;;;;;;;;;24.32;32.58;99571.41;8349176;28;19928;-77
2022/07/01 13:46:51;;;;;;;;;;;;;;;24.49;32.14;99568.63;8341610;28;19940;-77
2022/07/01 13:50:53;;;;;;;;;;;;;;;24.86;32.57;99574.41;8326072;28;19944;-77
2022/07/01 13:54:58;;;;;;;;;;;;;;;24.96;31.34;99579.09;8344471;28;19940;-77
2022/07/01 13:58:59;;;;;;;;;;;;;;;25.19;31.06;99577.72;8334807;28;19928;-77
2022/07/01 14:03:00;;;;;;;;;;;;;;;25.44;32.56;99579.69;8337685;28;19935;-76
2022/07/01 14:07:02;;;;;;;;;;;;;;;24.96;31.04;99586.19;8341508;28;19928;-77
2022/07/01 14:11:04;;;;;;;;;;;;;;;24.74;32.81;99585.75;8359382;28;19947;-77
2022/07/01 14:15:06;;;;;;;;;;;;;;;24.66;32.12;99587.06;8325005;28;19956;-75
2022/07/01 14:19:07;;;;;;;;;;;;;;;24.55;30.73;99586.84;8339208;28;20775;-75
2022/07/01 14:23:09;;;;;;;;;;;;;;;24.47;30.89;99588.25;8351867;28;19987;-75
2022/07/01 14:27:10;;;;;;;;;;;;;;;24.38;30.40;99584.31;8349685;28;19929;-76
2022/07/01 14:31:12;;;;;;;;;;;;;;;24.23;29.55;99590.47;8334166;28;19957;-77
2022/07/01 14:35:13;;;;;;;;;;;;;;;24.18;32.08;99596.03;8351765;28;20018;-77
2022/07/01 14:39:14;;;;;;;;;;;;;;;24.10;31.96;99599.16;8354314;28;19935;-77
2022/07/01 14:43:16;;;;;;;;;;;;;;;24.07;32.14;99601.97;8337866;28;20432;-77
2022/07/01 14:47:17;;;;;;;;;;;;;;;23.94;31.57;99600.94;8355379;28;19964;-77
2022/07/01 14:51:19;;;;;;;;;;;;;;;23.85;31.99;99605.91;8334963;28;20610;-77
2022/07/01 14:55:21;;;;;;;;;;;;;;;23.72;32.37;99609.25;8338091;28;20176;-77
2022/07/01 14:59:22;;;;;;;;;;;;;;;23.58;31.76;99616.22;8344321;28;19940;-78
2022/07/01 15:03:23;;;;;;;;;;;;;;;23.67;33.48;99615.72;8325176;28;21164;-77
2022/07/01 15:07:25;;;;;;;;;;;;;;;23.57;32.37;99612.72;8338288;28;19960;-77
2022/07/01 15:11:26;;;;;;;;;;;;;;;23.42;32.83;99611.72;8338261;28;19943;-77
2022/07/01 15:15:28;;;;;;;;;;;;;;;23.37;34.68;99619.06;8307078;28;19972;-77
2022/07/01 15:19:29;;;;;;;;;;;;;;;23.34;35.49;99613.94;8334305;28;19929;-77
2022/07/01 15:23:33;;;;;;;;;;;;;;;23.30;34.96;99619.47;8339338;28;19940;-77
2022/07/01 15:27:35;;;;;;;;;;;;;;;23.34;34.72;99626.28;8319409;28;20392;-77
2022/07/01 15:31:36;;;;;;;;;;;;;;;23.57;32.74;99622.47;8337530;28;19977;-78
2022/07/01 15:35:51;;;;;;;;;;;;;;;23.55;33.89;99622.53;8317039;28;19929;-78
2022/07/01 15:39:52;;;;;;;;;;;;;;;23.39;33.76;99621.63;8309803;28;19964;-77
2022/07/01 15:44:04;;;;;;;;;;;;;;;23.22;36.01;99614.56;8299292;28;19933;-77
2022/07/01 15:48:06;;;;;;;;;;;;;;;23.02;34.79;99620.91;8300827;28;20091;-77
2022/07/01 15:52:07;;;;;;;;;;;;;;;22.82;35.61;99631.69;8315731;28;19971;-77
2022/07/01 15:56:09;;;;;;;;;;;;;;;22.58;34.70;99636.34;8295028;28;20369;-77
2022/07/01 16:00:13;;;;;;;;;;;;;;;22.39;36.03;99640.84;8312586;28;19929;-77
2022/07/01 16:04:14;;;;;;;;;;;;;;;22.25;36.20;99639.72;8306843;28;19929;-77
2022/07/01 16:08:23;;;;;;;;;;;;;;;22.15;36.62;99642.91;8293636;28;19992;-77
2022/07/01 16:12:25;;;;;;;;;;;;;;;22.07;37.28;99645.03;8297606;28;19929;-77
2022/07/01 16:16:31;;;;;;;;;;;;;;;22.13;36.79;99637.69;8295276;28;20016;-78
2022/07/01 16:20:33;;;;;;;;;;;;;;;22.37;38.03;99635.63;8307972;28;19929;-78
2022/07/01 16:24:36;;;;;;;;;;;;;;;22.45;37.60;99637.91;8294908;28;19929;-77
2022/07/01 16:28:38;;;;;;;;;;;;;;;23.08;38.40;99643.56;8308289;28;19939;-77
2022/07/01 16:32:44;;;;;;;;;;;;;;;23.68;36.39;99639.50;8297270;28;20487;-77
2022/07/01 16:36:50;;;;;;;;;;;;;;;24.19;35.99;99640.22;8301587;28;19951;-77
2022/07/01 16:40:57;;;;;;;;;;;;;;;24.23;35.24;99635.59;8304950;28;19975;-78
2022/07/01 16:44:59;;;;;;;;;;;;;;;24.15;35.65;99638.69;8303143;28;19933;-77
2022/07/01 16:49:09;;;;;;;;;;;;;;;23.83;35.96;99645.75;8288117;28;19937;-77
2022/07/01 16:53:14;;;;;;;;;;;;;;;23.39;36.46;99641.03;8288617;28;19929;-77
2022/07/01 16:57:18;;;;;;;;;;;;;;;23.02;36.18;99638.59;8316111;28;19940;-78
2022/07/01 17:01:19;;;;;;;;;;;;;;;22.69;37.67;99635.84;8316473;28;19930;-77
2022/07/01 17:05:21;;;;;;;;;;;;;;;22.46;38.09;99647.56;8304163;28;19971;-77
2022/07/01 17:09:22;;;;;;;;;;;;;;;22.21;38.41;99645.22;8306878;28;20055;-77
2022/07/01 17:13:25;;;;;;;;;;;;;;;22.05;38.99;99653.03;8297570;28;19929;-78
2022/07/01 17:17:30;;;;;;;;;;;;;;;21.89;39.56;99652.88;8303706;28;19944;-77
2022/07/01 17:21:37;;;;;;;;;;;;;;;21.72;39.00;99660.72;8323703;28;19956;-77
2022/07/01 17:25:44;;;;;;;;;;;;;;;21.49;39.20;99660.91;8308761;28;19944;-77
2022/07/01 17:29:52;;;;;;;;;;;;;;;21.32;39.25;99659.00;8298640;28;19984;-78
2022/07/01 17:33:56;;;;;;;;;;;;;;;21.23;40.06;99664.69;8311051;28;19932;-77
2022/07/01 17:38:01;;;;;;;;;;;;;;;21.15;40.80;99672.91;8338566;28;19939;-77
2022/07/01 17:42:05;;;;;;;;;;;;;;;20.99;41.17;99683.25;8357007;28;19928;-77
2022/07/01 17:46:08;;;;;;;;;;;;;;;20.85;41.01;99677.72;8354155;28;19969;-77
2022/07/01 17:50:09;;;;;;;;;;;;;;;20.79;42.02;99676.19;8335837;28;19997;-77
2022/07/01 17:54:16;;;;;;;;;;;;;;;20.67;42.57;99674.06;8322632;28;20570;-77
2022/07/01 17:58:18;;;;;;;;;;;;;;;20.57;43.18;99671.84;8338460;28;19933;-77
2022/07/01 18:02:20;;;;;;;;;;;;;;;20.48;45.24;99673.97;8336379;28;20015;-77
2022/07/01 18:06:22;;;;;;;;;;;;;;;20.36;44.96;99671.78;8339184;28;20761;-78
2022/07/01 18:10:30;;;;;;;;;;;;;;;20.22;46.27;99674.94;8358597;28;19929;-78
2022/07/01 18:14:32;;;;;;;;;;;;;;;20.08;47.27;99676.41;8357082;28;20060;-78
2022/07/01 18:18:33;;;;;;;;;;;;;;;19.94;48.15;99684.84;8341940;28;19936;-77
2022/07/01 18:22:39;;;;;;;;;;;;;;;19.81;49.71;99684.44;8357573;28;19955;-77
2022/07/01 18:26:45;;;;;;;;;;;;;;;19.63;51.64;99686.91;8353016;28;19929;-77
2022/07/01 18:30:48;;;;;;;;;;;;;;;19.50;52.42;99687.31;8327177;28;20031;-78
2022/07/01 18:34:59;;;;;;;;;;;;;;;19.36;50.16;99697.47;8342203;28;19955;-77
2022/07/01 18:39:01;;;;;;;;;;;;;;;19.16;52.32;99700.81;8331485;28;19940;-74
2022/07/01 18:43:04;;;;;;;;;;;;;;;19.09;50.13;99699.31;8347357;28;20771;-77
2022/07/01 18:47:07;;;;;;;;;;;;;;;18.98;53.11;99690.91;8330829;28;20023;-77
2022/07/01 18:51:09;;;;;;;;;;;;;;;18.76;55.23;99703.06;8322398;28;20465;-77
2022/07/01 18:55:11;;;;;;;;;;;;;;;18.54;57.03;99705.50;8354422;28;19929;-77
2022/07/01 18:59:13;;;;;;;;;;;;;;;18.35;57.67;99713.97;8357200;28;20964;-77
2022/07/01 19:03:14;;;;;;;;;;;;;;;18.21;56.74;99713.53;8358269;28;20457;-77
2022/07/01 19:07:16;;;;;;;;;;;;;;;18.02;57.07;99722.88;8386723;28;20224;-77
2022/07/01 19:11:18;;;;;;;;;;;;;;;17.81;57.25;99717.31;8383460;28;19932;-77
2022/07/01 19:15:20;;;;;;;;;;;;;;;17.63;57.81;99723.06;8385265;28;20400;-77
2022/07/01 19:19:21;;;;;;;;;;;;;;;17.50;57.92;99727.78;8380232;28;19928;-77
2022/07/01 19:23:23;;;;;;;;;;;;;;;17.37;58.32;99733.41;8350807;28;20032;-77
2022/07/01 19:27:24;;;;;;;;;;;;;;;17.20;59.04;99734.69;8374112;28;19939;-77
2022/07/01 19:31:26;;;;;;;;;;;;;;;17.07;58.49;99735.94;8362412;28;19960;-77
2022/07/01 19:35:27;;;;;;;;;;;;;;;16.98;59.69;99740.53;8376593;28;19928;-77
2022/07/01 19:39:29;;;;;;;;;;;;;;;16.87;60.51;99753.91;8353282;28;20048;-77
2022/07/01 19:43:30;;;;;;;;;;;;;;;16.76;61.32;99763.81;8356951;28;19972;-76
2022/07/01 19:47:32;;;;;;;;;;;;;;;16.60;61.71;99765.88;8350685;28;20023;-76
2022/07/01 19:51:34;;;;;;;;;;;;;;;16.43;62.49;99778.50;8349616;28;19928;-76
2022/07/01 19:55:36;;;;;;;;;;;;;;;16.29;62.71;99778.81;8329167;28;19930;-76
2022/07/01 19:59:37;;;;;;;;;;;;;;;16.17;62.77;99782.56;8350734;28;20011;-74
2022/07/01 20:03:38;;;;;;;;;;;;;;;16.06;62.99;99791.53;8351114;28;19938;-74
2022/07/01 20:07:40;;;;;;;;;;;;;;;15.96;63.79;99796.06;8375729;28;19968;-75
2022/07/01 20:11:41;;;;;;;;;;;;;;;15.82;64.37;99801.59;8384439;28;20273;-76
2022/07/01 20:15:43;;;;;;;;;;;;;;;15.70;64.00;99799.19;8371901;28;20035;-75
2022/07/01 20:19:49;;;;;;;;;;;;;;;15.58;64.19;99815.94;8332072;28;19929;-75
2022/07/01 20:23:51;;;;;;;;;;;;;;;15.49;64.30;99813.50;8314953;28;19933;-75
2022/07/01 20:27:52;;;;;;;;;;;;;;;15.35;65.32;99812.88;8332035;28;19929;-75
2022/07/01 20:31:53;;;;;;;;;;;;;;;15.21;66.60;99818.34;8309120;28;19968;-75
2022/07/01 20:35:55;;;;;;;;;;;;;;;15.05;67.18;99822.09;8329516;28;20023;-75
2022/07/01 20:39:57;;;;;;;;;;;;;;;14.95;66.85;99820.53;8323987;28;19964;-75
2022/07/01 20:43:58;;;;;;;;;;;;;;;14.93;67.30;99823.16;8336192;28;19929;-76
2022/07/01 20:48:00;;;;;;;;;;;;;;;14.89;67.33;99825.81;8325913;28;19933;-75
2022/07/01 20:52:03;;;;;;;;;;;;;;;14.76;67.79;99827.78;8336664;28;19943;-75
2022/07/01 20:56:05;;;;;;;;;;;;;;;14.64;67.59;99830.53;8328402;28;20020;-75
2022/07/01 21:00:06;;;;;;;;;;;;;;;14.50;68.94;99831.59;8331070;28;20566;-73
2022/07/01 21:04:08;;;;;;;;;;;;;;;14.50;68.75;99834.19;8325357;28;19964;-75
2022/07/01 21:08:09;;;;;;;;;;;;;;;14.43;68.73;99834.28;8334959;28;20580;-77
2022/07/01 21:12:11;;;;;;;;;;;;;;;14.37;68.57;99850.03;8338992;28;19960;-75
2022/07/01 21:16:12;;;;;;;;;;;;;;;14.28;69.53;99852.75;8343818;28;19935;-73
2022/07/01 21:20:14;;;;;;;;;;;;;;;14.19;69.34;99848.53;8341673;28;19929;-74
2022/07/01 21:24:21;;;;;;;;;;;;;;;14.12;69.59;99852.06;8338071;28;19974;-73